sensor_id;sensor_type;location;lat;lon;timestamp;P1;durP1;ratioP1;P2;durP2;ratioP2
7047;SDS011;3565;53.254;10.352;2022-11-15T00:01:33;42.67;;;26.23;;
7047;SDS011;3565;53.254;10.352;2022-11-15T00:04:04;40.67;;;24.50;;
7047;SDS011;3565;53.254;10.352;2022-11-15T00:06:34;41.73;;;25.23;;
7047;SDS011;3565;53.254;10.352;2022-11-15T00:09:04;39.37;;;24.93;;
7047;SDS011;3565;53.254;10.352;2022-11-15T00:11:32;41.40;;;25.17;;
7047;SDS011;3565;53.254;10.352;2022-11-15T00:14:01;41.83;;;25.33;;
7047;SDS011;3565;53.254;10.352;2022-11-15T00:16:31;43.00;;;25.37;;
7047;SDS011;3565;53.254;10.352;2022-11-15T00:18:59;45.30;;;24.80;;
7047;SDS011;3565;53.254;10.352;2022-11-15T00:21:29;46.30;;;26.00;;
7047;SDS011;3565;53.254;10.352;2022-11-15T00:26:45;43.37;;;25.50;;
7047;SDS011;3565;53.254;10.352;2022-11-15T00:29:14;42.50;;;24.73;;
7047;SDS011;3565;53.254;10.352;2022-11-15T00:31:44;42.83;;;25.03;;
7047;SDS011;3565;53.254;10.352;2022-11-15T00:34:13;37.87;;;24.63;;
7047;SDS011;3565;53.254;10.352;2022-11-15T00:36:43;40.77;;;24.87;;
7047;SDS011;3565;53.254;10.352;2022-11-15T00:39:12;43.17;;;25.07;;
7047;SDS011;3565;53.254;10.352;2022-11-15T00:41:41;40.93;;;25.00;;
7047;SDS011;3565;53.254;10.352;2022-11-15T00:44:11;40.90;;;24.43;;
7047;SDS011;3565;53.254;10.352;2022-11-15T00:46:40;38.73;;;24.30;;
7047;SDS011;3565;53.254;10.352;2022-11-15T00:49:10;38.77;;;24.20;;
7047;SDS011;3565;53.254;10.352;2022-11-15T00:51:39;39.77;;;24.37;;
7047;SDS011;3565;53.254;10.352;2022-11-15T00:54:09;38.13;;;24.83;;
7047;SDS011;3565;53.254;10.352;2022-11-15T00:56:39;40.17;;;25.47;;
7047;SDS011;3565;53.254;10.352;2022-11-15T00:59:09;40.47;;;24.87;;
7047;SDS011;3565;53.254;10.352;2022-11-15T01:01:38;39.90;;;24.50;;
7047;SDS011;3565;53.254;10.352;2022-11-15T01:04:06;39.97;;;24.20;;
7047;SDS011;3565;53.254;10.352;2022-11-15T01:06:35;40.30;;;24.10;;
7047;SDS011;3565;53.254;10.352;2022-11-15T01:09:05;39.47;;;23.97;;
7047;SDS011;3565;53.254;10.352;2022-11-15T01:11:33;38.20;;;24.70;;
7047;SDS011;3565;53.254;10.352;2022-11-15T01:14:02;38.23;;;23.63;;
7047;SDS011;3565;53.254;10.352;2022-11-15T01:16:32;39.47;;;24.07;;
7047;SDS011;3565;53.254;10.352;2022-11-15T01:19:02;39.17;;;24.80;;
7047;SDS011;3565;53.254;10.352;2022-11-15T01:21:30;38.87;;;24.53;;
7047;SDS011;3565;53.254;10.352;2022-11-15T01:24:00;37.80;;;23.83;;
7047;SDS011;3565;53.254;10.352;2022-11-15T01:26:29;42.90;;;23.87;;
7047;SDS011;3565;53.254;10.352;2022-11-15T01:28:59;37.43;;;22.80;;
7047;SDS011;3565;53.254;10.352;2022-11-15T01:31:28;37.43;;;22.40;;
7047;SDS011;3565;53.254;10.352;2022-11-15T01:33:58;39.27;;;23.50;;
7047;SDS011;3565;53.254;10.352;2022-11-15T01:36:26;41.87;;;24.17;;
7047;SDS011;3565;53.254;10.352;2022-11-15T01:38:55;39.27;;;23.87;;
7047;SDS011;3565;53.254;10.352;2022-11-15T01:41:27;40.93;;;24.00;;
7047;SDS011;3565;53.254;10.352;2022-11-15T01:43:55;34.83;;;21.87;;
7047;SDS011;3565;53.254;10.352;2022-11-15T01:46:27;36.87;;;23.10;;
7047;SDS011;3565;53.254;10.352;2022-11-15T01:48:59;38.17;;;23.77;;
7047;SDS011;3565;53.254;10.352;2022-11-15T01:51:31;38.10;;;23.97;;
7047;SDS011;3565;53.254;10.352;2022-11-15T01:54:02;37.47;;;21.97;;
7047;SDS011;3565;53.254;10.352;2022-11-15T01:56:36;37.93;;;22.80;;
7047;SDS011;3565;53.254;10.352;2022-11-15T01:59:06;38.30;;;23.37;;
7047;SDS011;3565;53.254;10.352;2022-11-15T02:01:37;37.17;;;22.47;;
7047;SDS011;3565;53.254;10.352;2022-11-15T02:04:09;35.50;;;22.80;;
7047;SDS011;3565;53.254;10.352;2022-11-15T02:06:59;37.37;;;22.87;;
7047;SDS011;3565;53.254;10.352;2022-11-15T02:09:27;38.17;;;22.57;;
7047;SDS011;3565;53.254;10.352;2022-11-15T02:11:57;37.17;;;21.70;;
7047;SDS011;3565;53.254;10.352;2022-11-15T02:14:28;35.87;;;22.20;;
7047;SDS011;3565;53.254;10.352;2022-11-15T02:17:01;39.53;;;23.17;;
7047;SDS011;3565;53.254;10.352;2022-11-15T02:19:46;34.80;;;21.77;;
7047;SDS011;3565;53.254;10.352;2022-11-15T02:22:14;39.03;;;22.73;;
7047;SDS011;3565;53.254;10.352;2022-11-15T02:24:52;39.30;;;23.00;;
7047;SDS011;3565;53.254;10.352;2022-11-15T02:27:51;37.60;;;23.03;;
7047;SDS011;3565;53.254;10.352;2022-11-15T02:30:41;39.80;;;23.40;;
7047;SDS011;3565;53.254;10.352;2022-11-15T02:33:16;38.97;;;22.37;;
7047;SDS011;3565;53.254;10.352;2022-11-15T02:35:52;37.57;;;22.30;;
7047;SDS011;3565;53.254;10.352;2022-11-15T02:38:22;38.37;;;22.37;;
7047;SDS011;3565;53.254;10.352;2022-11-15T02:40:56;35.50;;;22.00;;
7047;SDS011;3565;53.254;10.352;2022-11-15T02:43:29;37.33;;;22.50;;
7047;SDS011;3565;53.254;10.352;2022-11-15T02:46:17;35.50;;;22.00;;
7047;SDS011;3565;53.254;10.352;2022-11-15T02:48:48;36.70;;;21.60;;
7047;SDS011;3565;53.254;10.352;2022-11-15T02:51:19;36.80;;;22.13;;
7047;SDS011;3565;53.254;10.352;2022-11-15T02:53:47;38.67;;;23.07;;
7047;SDS011;3565;53.254;10.352;2022-11-15T02:56:16;37.67;;;22.80;;
7047;SDS011;3565;53.254;10.352;2022-11-15T02:58:51;38.10;;;21.70;;
7047;SDS011;3565;53.254;10.352;2022-11-15T03:01:28;36.70;;;21.97;;
7047;SDS011;3565;53.254;10.352;2022-11-15T03:03:59;38.93;;;22.40;;
7047;SDS011;3565;53.254;10.352;2022-11-15T03:06:35;34.17;;;21.97;;
7047;SDS011;3565;53.254;10.352;2022-11-15T03:09:06;33.67;;;20.73;;
7047;SDS011;3565;53.254;10.352;2022-11-15T03:11:46;33.70;;;21.20;;
7047;SDS011;3565;53.254;10.352;2022-11-15T03:14:20;35.53;;;20.57;;
7047;SDS011;3565;53.254;10.352;2022-11-15T03:16:54;34.97;;;21.10;;
7047;SDS011;3565;53.254;10.352;2022-11-15T03:19:25;39.30;;;22.03;;
7047;SDS011;3565;53.254;10.352;2022-11-15T03:21:56;37.00;;;21.67;;
7047;SDS011;3565;53.254;10.352;2022-11-15T03:24:28;35.33;;;21.90;;
7047;SDS011;3565;53.254;10.352;2022-11-15T03:27:01;35.50;;;20.50;;
7047;SDS011;3565;53.254;10.352;2022-11-15T03:29:33;32.93;;;21.33;;
7047;SDS011;3565;53.254;10.352;2022-11-15T03:32:06;34.20;;;20.33;;
7047;SDS011;3565;53.254;10.352;2022-11-15T03:34:39;35.77;;;21.13;;
7047;SDS011;3565;53.254;10.352;2022-11-15T03:37:34;32.23;;;19.90;;
7047;SDS011;3565;53.254;10.352;2022-11-15T03:39:56;32.90;;;20.53;;
7047;SDS011;3565;53.254;10.352;2022-11-15T03:42:27;36.53;;;20.63;;
7047;SDS011;3565;53.254;10.352;2022-11-15T03:44:58;33.17;;;19.17;;
7047;SDS011;3565;53.254;10.352;2022-11-15T03:47:31;33.70;;;19.90;;
7047;SDS011;3565;53.254;10.352;2022-11-15T03:50:04;32.97;;;19.30;;
7047;SDS011;3565;53.254;10.352;2022-11-15T03:52:36;32.53;;;20.30;;
7047;SDS011;3565;53.254;10.352;2022-11-15T03:55:06;32.47;;;19.97;;
7047;SDS011;3565;53.254;10.352;2022-11-15T03:57:38;36.30;;;19.80;;
7047;SDS011;3565;53.254;10.352;2022-11-15T04:00:08;38.97;;;21.63;;
7047;SDS011;3565;53.254;10.352;2022-11-15T04:02:38;35.27;;;20.53;;
7047;SDS011;3565;53.254;10.352;2022-11-15T04:05:08;36.73;;;21.00;;
7047;SDS011;3565;53.254;10.352;2022-11-15T04:10:20;36.03;;;20.17;;
7047;SDS011;3565;53.254;10.352;2022-11-15T04:12:49;35.27;;;20.83;;
7047;SDS011;3565;53.254;10.352;2022-11-15T04:15:21;38.37;;;21.27;;
7047;SDS011;3565;53.254;10.352;2022-11-15T04:17:50;37.57;;;20.03;;
7047;SDS011;3565;53.254;10.352;2022-11-15T04:20:21;33.60;;;19.73;;
7047;SDS011;3565;53.254;10.352;2022-11-15T04:23:09;31.73;;;19.77;;
7047;SDS011;3565;53.254;10.352;2022-11-15T04:25:58;31.87;;;20.07;;
7047;SDS011;3565;53.254;10.352;2022-11-15T04:28:30;34.53;;;19.57;;
7047;SDS011;3565;53.254;10.352;2022-11-15T04:30:59;32.97;;;19.73;;
7047;SDS011;3565;53.254;10.352;2022-11-15T04:33:29;30.60;;;19.37;;
7047;SDS011;3565;53.254;10.352;2022-11-15T04:35:58;30.57;;;19.10;;
7047;SDS011;3565;53.254;10.352;2022-11-15T04:38:45;29.70;;;19.33;;
7047;SDS011;3565;53.254;10.352;2022-11-15T04:41:14;33.03;;;19.27;;
7047;SDS011;3565;53.254;10.352;2022-11-15T04:43:44;31.43;;;18.87;;
7047;SDS011;3565;53.254;10.352;2022-11-15T04:46:13;32.57;;;19.30;;
7047;SDS011;3565;53.254;10.352;2022-11-15T04:48:43;30.27;;;19.23;;
7047;SDS011;3565;53.254;10.352;2022-11-15T04:51:13;33.33;;;19.00;;
7047;SDS011;3565;53.254;10.352;2022-11-15T04:53:41;30.67;;;19.23;;
7047;SDS011;3565;53.254;10.352;2022-11-15T04:56:09;33.10;;;19.87;;
7047;SDS011;3565;53.254;10.352;2022-11-15T04:58:39;32.87;;;19.20;;
7047;SDS011;3565;53.254;10.352;2022-11-15T05:01:07;29.33;;;19.20;;
7047;SDS011;3565;53.254;10.352;2022-11-15T05:03:37;32.13;;;19.43;;
7047;SDS011;3565;53.254;10.352;2022-11-15T05:06:24;29.07;;;18.77;;
7047;SDS011;3565;53.254;10.352;2022-11-15T05:08:53;31.63;;;18.53;;
7047;SDS011;3565;53.254;10.352;2022-11-15T05:11:23;32.27;;;19.83;;
7047;SDS011;3565;53.254;10.352;2022-11-15T05:13:53;32.47;;;20.43;;
7047;SDS011;3565;53.254;10.352;2022-11-15T05:16:23;34.53;;;20.30;;
7047;SDS011;3565;53.254;10.352;2022-11-15T05:18:51;33.60;;;20.13;;
7047;SDS011;3565;53.254;10.352;2022-11-15T05:21:22;30.27;;;19.20;;
7047;SDS011;3565;53.254;10.352;2022-11-15T05:23:51;33.03;;;20.73;;
7047;SDS011;3565;53.254;10.352;2022-11-15T05:26:18;30.80;;;18.83;;
7047;SDS011;3565;53.254;10.352;2022-11-15T05:28:52;32.67;;;20.03;;
7047;SDS011;3565;53.254;10.352;2022-11-15T05:31:22;33.00;;;19.60;;
7047;SDS011;3565;53.254;10.352;2022-11-15T05:33:50;30.87;;;18.87;;
7047;SDS011;3565;53.254;10.352;2022-11-15T05:36:21;36.57;;;20.60;;
7047;SDS011;3565;53.254;10.352;2022-11-15T05:38:55;37.60;;;20.30;;
7047;SDS011;3565;53.254;10.352;2022-11-15T05:41:25;33.30;;;20.20;;
7047;SDS011;3565;53.254;10.352;2022-11-15T05:43:58;34.00;;;20.43;;
7047;SDS011;3565;53.254;10.352;2022-11-15T05:46:27;35.83;;;21.70;;
7047;SDS011;3565;53.254;10.352;2022-11-15T05:48:57;33.80;;;20.07;;
7047;SDS011;3565;53.254;10.352;2022-11-15T05:51:27;34.37;;;20.73;;
7047;SDS011;3565;53.254;10.352;2022-11-15T05:53:58;34.80;;;20.53;;
7047;SDS011;3565;53.254;10.352;2022-11-15T05:56:28;36.87;;;20.13;;
7047;SDS011;3565;53.254;10.352;2022-11-15T05:58:57;31.93;;;19.87;;
7047;SDS011;3565;53.254;10.352;2022-11-15T06:01:27;31.43;;;19.10;;
7047;SDS011;3565;53.254;10.352;2022-11-15T06:03:57;35.30;;;21.30;;
7047;SDS011;3565;53.254;10.352;2022-11-15T06:06:27;34.07;;;20.70;;
7047;SDS011;3565;53.254;10.352;2022-11-15T06:08:56;30.93;;;19.23;;
7047;SDS011;3565;53.254;10.352;2022-11-15T06:11:25;31.43;;;19.93;;
7047;SDS011;3565;53.254;10.352;2022-11-15T06:13:56;33.13;;;20.60;;
7047;SDS011;3565;53.254;10.352;2022-11-15T06:16:26;30.83;;;20.43;;
7047;SDS011;3565;53.254;10.352;2022-11-15T06:18:53;29.13;;;18.53;;
7047;SDS011;3565;53.254;10.352;2022-11-15T06:21:23;32.73;;;19.87;;
7047;SDS011;3565;53.254;10.352;2022-11-15T06:23:54;34.57;;;19.43;;
7047;SDS011;3565;53.254;10.352;2022-11-15T06:26:24;30.57;;;19.83;;
7047;SDS011;3565;53.254;10.352;2022-11-15T06:28:53;36.40;;;19.93;;
7047;SDS011;3565;53.254;10.352;2022-11-15T06:31:23;29.37;;;18.67;;
7047;SDS011;3565;53.254;10.352;2022-11-15T06:33:52;32.27;;;19.33;;
7047;SDS011;3565;53.254;10.352;2022-11-15T06:36:21;35.13;;;19.97;;
7047;SDS011;3565;53.254;10.352;2022-11-15T06:38:49;32.03;;;20.83;;
7047;SDS011;3565;53.254;10.352;2022-11-15T06:41:18;30.47;;;18.87;;
7047;SDS011;3565;53.254;10.352;2022-11-15T06:43:48;33.17;;;20.00;;
7047;SDS011;3565;53.254;10.352;2022-11-15T06:46:17;33.70;;;20.33;;
7047;SDS011;3565;53.254;10.352;2022-11-15T06:48:46;32.40;;;19.53;;
7047;SDS011;3565;53.254;10.352;2022-11-15T06:51:18;31.00;;;18.97;;
7047;SDS011;3565;53.254;10.352;2022-11-15T06:53:46;30.87;;;19.93;;
7047;SDS011;3565;53.254;10.352;2022-11-15T06:56:14;33.03;;;19.67;;
7047;SDS011;3565;53.254;10.352;2022-11-15T06:58:43;31.00;;;18.87;;
7047;SDS011;3565;53.254;10.352;2022-11-15T07:01:13;32.77;;;19.63;;
7047;SDS011;3565;53.254;10.352;2022-11-15T07:03:42;31.57;;;18.90;;
7047;SDS011;3565;53.254;10.352;2022-11-15T07:06:13;32.40;;;18.53;;
7047;SDS011;3565;53.254;10.352;2022-11-15T07:08:41;31.93;;;18.73;;
7047;SDS011;3565;53.254;10.352;2022-11-15T07:11:10;34.10;;;18.93;;
7047;SDS011;3565;53.254;10.352;2022-11-15T07:13:40;30.93;;;17.87;;
7047;SDS011;3565;53.254;10.352;2022-11-15T07:16:08;31.23;;;19.43;;
7047;SDS011;3565;53.254;10.352;2022-11-15T07:18:39;29.47;;;18.43;;
7047;SDS011;3565;53.254;10.352;2022-11-15T07:21:09;30.00;;;18.57;;
7047;SDS011;3565;53.254;10.352;2022-11-15T07:23:39;32.17;;;19.90;;
7047;SDS011;3565;53.254;10.352;2022-11-15T07:26:09;29.90;;;17.27;;
7047;SDS011;3565;53.254;10.352;2022-11-15T07:28:38;31.20;;;19.47;;
7047;SDS011;3565;53.254;10.352;2022-11-15T07:31:08;29.60;;;18.47;;
7047;SDS011;3565;53.254;10.352;2022-11-15T07:33:37;30.63;;;18.63;;
7047;SDS011;3565;53.254;10.352;2022-11-15T07:36:08;29.83;;;18.23;;
7047;SDS011;3565;53.254;10.352;2022-11-15T07:38:38;29.87;;;18.17;;
7047;SDS011;3565;53.254;10.352;2022-11-15T07:41:07;30.73;;;19.63;;
7047;SDS011;3565;53.254;10.352;2022-11-15T07:43:36;27.00;;;18.43;;
7047;SDS011;3565;53.254;10.352;2022-11-15T07:46:06;25.70;;;17.87;;
7047;SDS011;3565;53.254;10.352;2022-11-15T07:48:36;29.00;;;18.23;;
7047;SDS011;3565;53.254;10.352;2022-11-15T07:51:06;25.43;;;17.73;;
7047;SDS011;3565;53.254;10.352;2022-11-15T07:53:37;29.20;;;17.83;;
7047;SDS011;3565;53.254;10.352;2022-11-15T07:56:07;26.20;;;17.37;;
7047;SDS011;3565;53.254;10.352;2022-11-15T07:58:36;28.07;;;17.77;;
7047;SDS011;3565;53.254;10.352;2022-11-15T08:03:51;26.50;;;17.10;;
7047;SDS011;3565;53.254;10.352;2022-11-15T08:06:29;24.33;;;16.30;;
7047;SDS011;3565;53.254;10.352;2022-11-15T08:08:57;25.63;;;16.97;;
7047;SDS011;3565;53.254;10.352;2022-11-15T08:11:26;30.07;;;16.93;;
7047;SDS011;3565;53.254;10.352;2022-11-15T08:13:56;23.60;;;16.50;;
7047;SDS011;3565;53.254;10.352;2022-11-15T08:16:26;22.33;;;16.20;;
7047;SDS011;3565;53.254;10.352;2022-11-15T08:18:55;22.93;;;16.33;;
7047;SDS011;3565;53.254;10.352;2022-11-15T08:21:25;22.10;;;15.43;;
7047;SDS011;3565;53.254;10.352;2022-11-15T08:23:54;20.43;;;14.77;;
7047;SDS011;3565;53.254;10.352;2022-11-15T08:26:24;21.10;;;14.70;;
7047;SDS011;3565;53.254;10.352;2022-11-15T08:28:56;22.70;;;16.30;;
7047;SDS011;3565;53.254;10.352;2022-11-15T08:31:24;22.83;;;15.60;;
7047;SDS011;3565;53.254;10.352;2022-11-15T08:33:53;22.33;;;15.60;;
7047;SDS011;3565;53.254;10.352;2022-11-15T08:36:23;21.53;;;14.60;;
7047;SDS011;3565;53.254;10.352;2022-11-15T08:38:52;23.00;;;15.83;;
7047;SDS011;3565;53.254;10.352;2022-11-15T08:41:23;21.80;;;15.10;;
7047;SDS011;3565;53.254;10.352;2022-11-15T08:44:05;23.60;;;14.40;;
7047;SDS011;3565;53.254;10.352;2022-11-15T08:46:34;22.27;;;14.50;;
7047;SDS011;3565;53.254;10.352;2022-11-15T08:49:04;23.60;;;15.63;;
7047;SDS011;3565;53.254;10.352;2022-11-15T08:51:34;20.13;;;14.80;;
7047;SDS011;3565;53.254;10.352;2022-11-15T08:54:04;23.57;;;16.10;;
7047;SDS011;3565;53.254;10.352;2022-11-15T08:56:32;22.80;;;14.27;;
7047;SDS011;3565;53.254;10.352;2022-11-15T08:59:02;22.03;;;14.53;;
7047;SDS011;3565;53.254;10.352;2022-11-15T09:01:30;19.67;;;14.23;;
7047;SDS011;3565;53.254;10.352;2022-11-15T09:03:59;20.93;;;15.10;;
7047;SDS011;3565;53.254;10.352;2022-11-15T09:06:30;21.17;;;15.10;;
7047;SDS011;3565;53.254;10.352;2022-11-15T09:09:00;21.00;;;14.30;;
7047;SDS011;3565;53.254;10.352;2022-11-15T09:11:30;22.13;;;13.93;;
7047;SDS011;3565;53.254;10.352;2022-11-15T09:13:59;22.40;;;14.97;;
7047;SDS011;3565;53.254;10.352;2022-11-15T09:16:30;20.87;;;15.17;;
7047;SDS011;3565;53.254;10.352;2022-11-15T09:19:00;18.60;;;13.67;;
7047;SDS011;3565;53.254;10.352;2022-11-15T09:21:29;19.67;;;14.33;;
7047;SDS011;3565;53.254;10.352;2022-11-15T09:23:59;21.67;;;14.70;;
7047;SDS011;3565;53.254;10.352;2022-11-15T09:26:30;23.07;;;15.27;;
7047;SDS011;3565;53.254;10.352;2022-11-15T09:28:59;21.97;;;15.00;;
7047;SDS011;3565;53.254;10.352;2022-11-15T09:31:29;18.67;;;14.03;;
7047;SDS011;3565;53.254;10.352;2022-11-15T09:33:58;22.93;;;14.07;;
7047;SDS011;3565;53.254;10.352;2022-11-15T09:36:28;21.53;;;15.17;;
7047;SDS011;3565;53.254;10.352;2022-11-15T09:38:57;19.83;;;14.40;;
7047;SDS011;3565;53.254;10.352;2022-11-15T09:41:45;17.23;;;13.63;;
7047;SDS011;3565;53.254;10.352;2022-11-15T09:44:33;20.63;;;14.07;;
7047;SDS011;3565;53.254;10.352;2022-11-15T09:47:07;20.33;;;13.80;;
7047;SDS011;3565;53.254;10.352;2022-11-15T09:49:46;20.70;;;14.20;;
7047;SDS011;3565;53.254;10.352;2022-11-15T09:52:20;17.53;;;13.57;;
7047;SDS011;3565;53.254;10.352;2022-11-15T09:54:50;19.43;;;14.20;;
7047;SDS011;3565;53.254;10.352;2022-11-15T09:57:21;20.40;;;13.77;;
7047;SDS011;3565;53.254;10.352;2022-11-15T10:00:00;18.87;;;13.37;;
7047;SDS011;3565;53.254;10.352;2022-11-15T10:02:37;21.93;;;13.17;;
7047;SDS011;3565;53.254;10.352;2022-11-15T10:05:18;17.20;;;12.80;;
7047;SDS011;3565;53.254;10.352;2022-11-15T10:07:53;23.27;;;12.87;;
7047;SDS011;3565;53.254;10.352;2022-11-15T10:10:24;15.37;;;11.90;;
7047;SDS011;3565;53.254;10.352;2022-11-15T10:12:55;16.70;;;12.73;;
7047;SDS011;3565;53.254;10.352;2022-11-15T10:18:06;18.00;;;13.17;;
7047;SDS011;3565;53.254;10.352;2022-11-15T10:20:40;19.93;;;11.97;;
7047;SDS011;3565;53.254;10.352;2022-11-15T10:23:11;16.47;;;11.40;;
7047;SDS011;3565;53.254;10.352;2022-11-15T10:25:39;17.10;;;12.40;;
7047;SDS011;3565;53.254;10.352;2022-11-15T10:28:11;16.60;;;12.50;;
7047;SDS011;3565;53.254;10.352;2022-11-15T10:30:45;16.87;;;11.83;;
7047;SDS011;3565;53.254;10.352;2022-11-15T10:33:21;15.73;;;10.87;;
7047;SDS011;3565;53.254;10.352;2022-11-15T10:35:52;15.93;;;11.37;;
7047;SDS011;3565;53.254;10.352;2022-11-15T10:38:21;16.60;;;10.87;;
7047;SDS011;3565;53.254;10.352;2022-11-15T10:40:49;15.87;;;11.23;;
7047;SDS011;3565;53.254;10.352;2022-11-15T10:43:37;17.50;;;11.37;;
7047;SDS011;3565;53.254;10.352;2022-11-15T10:46:16;13.50;;;10.60;;
7047;SDS011;3565;53.254;10.352;2022-11-15T10:48:44;14.67;;;10.93;;
7047;SDS011;3565;53.254;10.352;2022-11-15T10:51:18;16.10;;;11.43;;
7047;SDS011;3565;53.254;10.352;2022-11-15T10:53:51;14.17;;;11.10;;
7047;SDS011;3565;53.254;10.352;2022-11-15T10:56:22;13.53;;;10.77;;
7047;SDS011;3565;53.254;10.352;2022-11-15T10:58:51;13.93;;;10.67;;
7047;SDS011;3565;53.254;10.352;2022-11-15T11:01:24;13.20;;;10.80;;
7047;SDS011;3565;53.254;10.352;2022-11-15T11:03:59;16.03;;;10.77;;
7047;SDS011;3565;53.254;10.352;2022-11-15T11:06:28;15.40;;;10.03;;
7047;SDS011;3565;53.254;10.352;2022-11-15T11:08:57;12.70;;;9.83;;
7047;SDS011;3565;53.254;10.352;2022-11-15T11:11:43;14.03;;;10.10;;
7047;SDS011;3565;53.254;10.352;2022-11-15T11:14:17;14.20;;;10.20;;
7047;SDS011;3565;53.254;10.352;2022-11-15T11:16:46;13.23;;;9.60;;
7047;SDS011;3565;53.254;10.352;2022-11-15T11:19:20;13.20;;;10.07;;
7047;SDS011;3565;53.254;10.352;2022-11-15T11:22:04;14.93;;;10.17;;
7047;SDS011;3565;53.254;10.352;2022-11-15T11:24:38;12.97;;;9.23;;
7047;SDS011;3565;53.254;10.352;2022-11-15T11:27:16;14.57;;;9.27;;
7047;SDS011;3565;53.254;10.352;2022-11-15T11:30:02;11.83;;;9.00;;
7047;SDS011;3565;53.254;10.352;2022-11-15T11:32:40;13.20;;;8.87;;
7047;SDS011;3565;53.254;10.352;2022-11-15T11:35:08;13.17;;;9.00;;
7047;SDS011;3565;53.254;10.352;2022-11-15T11:37:36;14.07;;;9.60;;
7047;SDS011;3565;53.254;10.352;2022-11-15T11:40:13;13.40;;;8.93;;
7047;SDS011;3565;53.254;10.352;2022-11-15T11:42:54;13.37;;;8.87;;
7047;SDS011;3565;53.254;10.352;2022-11-15T11:45:36;13.37;;;9.07;;
7047;SDS011;3565;53.254;10.352;2022-11-15T11:48:20;10.73;;;8.83;;
7047;SDS011;3565;53.254;10.352;2022-11-15T11:50:50;12.10;;;8.73;;
7047;SDS011;3565;53.254;10.352;2022-11-15T11:53:24;11.17;;;8.97;;
7047;SDS011;3565;53.254;10.352;2022-11-15T11:55:56;11.33;;;8.87;;
7047;SDS011;3565;53.254;10.352;2022-11-15T11:58:28;11.97;;;8.93;;
7047;SDS011;3565;53.254;10.352;2022-11-15T12:01:02;11.70;;;8.93;;
7047;SDS011;3565;53.254;10.352;2022-11-15T12:03:34;10.67;;;8.50;;
7047;SDS011;3565;53.254;10.352;2022-11-15T12:06:06;11.47;;;8.10;;
7047;SDS011;3565;53.254;10.352;2022-11-15T12:08:40;8.37;;;6.97;;
7047;SDS011;3565;53.254;10.352;2022-11-15T12:11:12;10.47;;;8.33;;
7047;SDS011;3565;53.254;10.352;2022-11-15T12:13:44;12.57;;;8.27;;
7047;SDS011;3565;53.254;10.352;2022-11-15T12:16:16;9.60;;;8.00;;
7047;SDS011;3565;53.254;10.352;2022-11-15T12:18:47;10.57;;;7.70;;
7047;SDS011;3565;53.254;10.352;2022-11-15T12:21:19;11.73;;;8.10;;
7047;SDS011;3565;53.254;10.352;2022-11-15T12:23:52;12.63;;;8.97;;
7047;SDS011;3565;53.254;10.352;2022-11-15T12:26:33;11.50;;;8.00;;
7047;SDS011;3565;53.254;10.352;2022-11-15T12:29:04;9.57;;;8.13;;
7047;SDS011;3565;53.254;10.352;2022-11-15T12:31:39;12.27;;;7.47;;
7047;SDS011;3565;53.254;10.352;2022-11-15T12:34:28;13.40;;;7.60;;
7047;SDS011;3565;53.254;10.352;2022-11-15T12:37:32;9.63;;;8.17;;
7047;SDS011;3565;53.254;10.352;2022-11-15T12:40:13;11.13;;;7.80;;
7047;SDS011;3565;53.254;10.352;2022-11-15T12:42:59;10.13;;;8.27;;
7047;SDS011;3565;53.254;10.352;2022-11-15T12:45:28;11.63;;;8.63;;
7047;SDS011;3565;53.254;10.352;2022-11-15T12:51:04;11.13;;;8.33;;
7047;SDS011;3565;53.254;10.352;2022-11-15T12:53:34;10.93;;;7.77;;
7047;SDS011;3565;53.254;10.352;2022-11-15T12:56:16;9.47;;;7.70;;
7047;SDS011;3565;53.254;10.352;2022-11-15T12:58:52;11.43;;;8.87;;
7047;SDS011;3565;53.254;10.352;2022-11-15T13:01:54;9.70;;;8.23;;
7047;SDS011;3565;53.254;10.352;2022-11-15T13:04:28;11.17;;;7.90;;
7047;SDS011;3565;53.254;10.352;2022-11-15T13:06:59;11.30;;;8.20;;
7047;SDS011;3565;53.254;10.352;2022-11-15T13:18:40;9.63;;;7.13;;
7047;SDS011;3565;53.254;10.352;2022-11-15T13:21:19;9.90;;;8.07;;
7047;SDS011;3565;53.254;10.352;2022-11-15T13:24:13;9.60;;;7.63;;
7047;SDS011;3565;53.254;10.352;2022-11-15T13:26:44;9.20;;;7.40;;
7047;SDS011;3565;53.254;10.352;2022-11-15T13:29:23;11.50;;;7.33;;
7047;SDS011;3565;53.254;10.352;2022-11-15T13:31:53;9.63;;;8.07;;
7047;SDS011;3565;53.254;10.352;2022-11-15T13:34:25;9.90;;;8.07;;
7047;SDS011;3565;53.254;10.352;2022-11-15T13:36:58;9.90;;;7.60;;
7047;SDS011;3565;53.254;10.352;2022-11-15T13:39:28;10.23;;;7.40;;
7047;SDS011;3565;53.254;10.352;2022-11-15T13:41:59;11.40;;;7.97;;
7047;SDS011;3565;53.254;10.352;2022-11-15T13:44:28;8.57;;;7.30;;
7047;SDS011;3565;53.254;10.352;2022-11-15T13:47:02;10.13;;;7.60;;
7047;SDS011;3565;53.254;10.352;2022-11-15T13:49:33;12.87;;;8.30;;
7047;SDS011;3565;53.254;10.352;2022-11-15T13:52:05;9.87;;;7.73;;
7047;SDS011;3565;53.254;10.352;2022-11-15T13:54:37;10.60;;;7.90;;
7047;SDS011;3565;53.254;10.352;2022-11-15T13:57:10;11.93;;;7.80;;
7047;SDS011;3565;53.254;10.352;2022-11-15T13:59:45;10.37;;;8.33;;
7047;SDS011;3565;53.254;10.352;2022-11-15T14:02:17;10.63;;;8.00;;
7047;SDS011;3565;53.254;10.352;2022-11-15T14:04:48;10.60;;;7.87;;
7047;SDS011;3565;53.254;10.352;2022-11-15T14:07:21;10.17;;;8.47;;
7047;SDS011;3565;53.254;10.352;2022-11-15T14:09:52;10.23;;;8.50;;
7047;SDS011;3565;53.254;10.352;2022-11-15T14:12:28;12.90;;;9.27;;
7047;SDS011;3565;53.254;10.352;2022-11-15T14:14:59;10.30;;;8.37;;
7047;SDS011;3565;53.254;10.352;2022-11-15T14:17:35;10.90;;;8.47;;
7047;SDS011;3565;53.254;10.352;2022-11-15T14:20:19;10.87;;;8.60;;
7047;SDS011;3565;53.254;10.352;2022-11-15T14:22:58;9.70;;;7.83;;
7047;SDS011;3565;53.254;10.352;2022-11-15T14:25:26;12.27;;;8.60;;
7047;SDS011;3565;53.254;10.352;2022-11-15T14:28:28;10.67;;;8.30;;
7047;SDS011;3565;53.254;10.352;2022-11-15T14:30:45;9.70;;;8.60;;
7047;SDS011;3565;53.254;10.352;2022-11-15T14:33:20;12.60;;;8.00;;
7047;SDS011;3565;53.254;10.352;2022-11-15T14:35:51;10.87;;;8.07;;
7047;SDS011;3565;53.254;10.352;2022-11-15T14:38:22;11.63;;;7.90;;
7047;SDS011;3565;53.254;10.352;2022-11-15T14:40:52;9.93;;;7.90;;
7047;SDS011;3565;53.254;10.352;2022-11-15T14:43:22;12.33;;;8.07;;
7047;SDS011;3565;53.254;10.352;2022-11-15T14:45:50;11.10;;;8.40;;
7047;SDS011;3565;53.254;10.352;2022-11-15T14:48:18;10.77;;;8.03;;
7047;SDS011;3565;53.254;10.352;2022-11-15T14:50:49;8.97;;;7.63;;
7047;SDS011;3565;53.254;10.352;2022-11-15T14:53:17;9.60;;;7.83;;
7047;SDS011;3565;53.254;10.352;2022-11-15T14:55:46;10.07;;;7.80;;
7047;SDS011;3565;53.254;10.352;2022-11-15T14:58:16;10.17;;;8.10;;
7047;SDS011;3565;53.254;10.352;2022-11-15T15:00:44;12.40;;;8.60;;
7047;SDS011;3565;53.254;10.352;2022-11-15T15:03:13;11.23;;;8.13;;
7047;SDS011;3565;53.254;10.352;2022-11-15T15:05:43;12.00;;;8.50;;
7047;SDS011;3565;53.254;10.352;2022-11-15T15:08:11;12.97;;;9.20;;
7047;SDS011;3565;53.254;10.352;2022-11-15T15:10:41;12.90;;;9.13;;
7047;SDS011;3565;53.254;10.352;2022-11-15T15:13:14;11.77;;;8.63;;
7047;SDS011;3565;53.254;10.352;2022-11-15T15:15:43;11.27;;;8.43;;
7047;SDS011;3565;53.254;10.352;2022-11-15T15:18:16;11.83;;;8.33;;
7047;SDS011;3565;53.254;10.352;2022-11-15T15:20:48;12.43;;;9.30;;
7047;SDS011;3565;53.254;10.352;2022-11-15T15:23:19;11.37;;;9.23;;
7047;SDS011;3565;53.254;10.352;2022-11-15T15:25:47;11.57;;;9.20;;
7047;SDS011;3565;53.254;10.352;2022-11-15T15:28:19;14.10;;;9.10;;
7047;SDS011;3565;53.254;10.352;2022-11-15T15:30:49;10.97;;;8.67;;